Weather at Ghantoot Racing & Polo Club Helipad

Public forecast

Using degrees Celsius for public forecast. Weather courtesy of forecast.io.

Closest aviation weather report (METAR) to Ghantoot Racing & Polo Club Helipad

Closest report is Al Maktoum International Airport, 14.0 nm (26.0 km) E.

2024/06/20 19:00 (retrieved 54 minutes ago)

OMDW 201900Z 20004KT 8000 NSC 34/25 Q0997 NOSIG

Closest aviation forecast (TAF) to Ghantoot Racing & Polo Club Helipad

Closest forecast is Al Maktoum International Airport, 14.0 nm (26.0 km) E.

2024/06/20 18:00 (retrieved 2 hours ago)

TAF OMDW 201700Z 2018/2200 VRB02KT 8000 NSC BECMG 2108/2110 33014KT PROB30 TEMPO 2109/2113 33017G27KT 3000 BLDU BECMG 2116/2118 VRB02KT